createdAt,value
2018-07-25T00:00:01.222Z,3.6
2018-07-25T00:00:13.631Z,3.6
2018-07-25T00:00:26.131Z,3.6
2018-07-25T00:00:38.670Z,3.6
2018-07-25T00:00:51.079Z,3.6
2018-07-25T00:01:03.545Z,3.6
2018-07-25T00:01:16.075Z,3.6
2018-07-25T00:01:28.472Z,3.6
2018-07-25T00:01:40.866Z,3.6
2018-07-25T00:01:53.265Z,3.6
2018-07-25T00:02:05.765Z,3.6
2018-07-25T00:02:18.184Z,3.6
2018-07-25T00:02:30.568Z,3.6
2018-07-25T00:02:42.966Z,3.6
2018-07-25T00:02:55.350Z,3.6
2018-07-25T00:03:07.747Z,3.6
2018-07-25T00:03:20.152Z,3.6
2018-07-25T00:03:32.555Z,3.6
2018-07-25T00:03:44.948Z,3.6
2018-07-25T00:03:57.347Z,3.6
2018-07-25T00:04:09.771Z,3.6
2018-07-25T00:04:22.171Z,3.6
2018-07-25T00:04:34.565Z,3.6
2018-07-25T00:04:46.969Z,3.6
2018-07-25T00:04:59.351Z,3.6
2018-07-25T00:05:11.802Z,3.6
2018-07-25T00:05:24.205Z,3.6
2018-07-25T00:05:36.603Z,3.6
2018-07-25T00:05:48.990Z,3.6
2018-07-25T00:06:01.379Z,3.6
2018-07-25T00:06:13.767Z,3.6
2018-07-25T00:06:26.169Z,3.6
2018-07-25T00:06:38.558Z,3.6
2018-07-25T00:06:50.939Z,3.6
2018-07-25T00:07:03.329Z,2.38
2018-07-25T00:07:15.813Z,2.38
2018-07-25T00:07:28.202Z,2.38
2018-07-25T00:07:40.597Z,2.38
2018-07-25T00:07:53.075Z,2.38
2018-07-25T00:08:05.468Z,2.38
2018-07-25T00:08:17.894Z,2.38
2018-07-25T00:08:30.398Z,2.38
2018-07-25T00:08:42.958Z,2.38
2018-07-25T00:08:55.345Z,2.38
2018-07-25T00:09:07.743Z,2.38
2018-07-25T00:09:20.131Z,2.38
2018-07-25T00:09:32.530Z,2.38
2018-07-25T00:09:44.937Z,2.38
2018-07-25T00:09:57.324Z,2.38
2018-07-25T00:10:09.708Z,2.38
2018-07-25T00:10:22.097Z,2.38
2018-07-25T00:10:34.482Z,2.38
2018-07-25T00:10:46.870Z,2.38
2018-07-25T00:10:59.269Z,2.38
2018-07-25T00:11:11.674Z,2.38
2018-07-25T00:11:24.061Z,2.38
2018-07-25T00:11:36.459Z,2.38
2018-07-25T00:11:48.855Z,2.38
2018-07-25T00:12:01.280Z,2.38
2018-07-25T00:12:13.678Z,2.38
2018-07-25T00:12:26.070Z,2.38
2018-07-25T00:12:38.459Z,2.38
2018-07-25T00:12:50.850Z,2.38
2018-07-25T00:13:03.239Z,2.38
2018-07-25T00:13:15.636Z,2.38
2018-07-25T00:13:28.038Z,2.38
2018-07-25T00:13:40.453Z,2.38
2018-07-25T00:13:52.858Z,2.38
2018-07-25T00:14:05.430Z,2.38
2018-07-25T00:14:17.822Z,2.38
2018-07-25T00:14:30.251Z,2.38
2018-07-25T00:14:42.648Z,2.38
2018-07-25T00:14:55.050Z,2.38
2018-07-25T00:15:07.499Z,2.38
2018-07-25T00:15:19.903Z,2.38
2018-07-25T00:15:32.302Z,2.38
2018-07-25T00:15:44.680Z,2.38
2018-07-25T00:15:57.078Z,2.38
2018-07-25T00:16:09.485Z,2.38
2018-07-25T00:16:21.890Z,2.38
2018-07-25T00:16:34.266Z,2.38
2018-07-25T00:16:46.674Z,2.38
2018-07-25T00:16:59.062Z,3.05
2018-07-25T00:17:11.481Z,3.05
2018-07-25T00:17:23.872Z,3.05
2018-07-25T00:17:36.260Z,3.05
2018-07-25T00:17:48.793Z,3.05
2018-07-25T00:18:01.188Z,3.05
2018-07-25T00:18:13.582Z,3.05
2018-07-25T00:18:26.023Z,3.05
2018-07-25T00:18:38.400Z,3.05
2018-07-25T00:18:50.775Z,3.05
2018-07-25T00:19:03.410Z,3.05
2018-07-25T00:19:15.849Z,3.05
2018-07-25T00:19:28.226Z,3.05
2018-07-25T00:19:40.685Z,3.05
2018-07-25T00:19:53.121Z,3.05
2018-07-25T00:20:05.529Z,3.05
2018-07-25T00:20:17.933Z,3.05
2018-07-25T00:20:30.452Z,3.05
2018-07-25T00:20:42.836Z,3.05
2018-07-25T00:20:55.215Z,3.05
2018-07-25T00:21:07.611Z,3.05
2018-07-25T00:21:20.079Z,3.05
2018-07-25T00:21:33.216Z,3.05
2018-07-25T00:21:46.006Z,3.05
2018-07-25T00:21:58.404Z,3.05
2018-07-25T00:22:10.797Z,3.05
2018-07-25T00:22:23.192Z,3.05
2018-07-25T00:22:35.583Z,3.05
2018-07-25T00:22:47.982Z,3.05
2018-07-25T00:23:00.400Z,3.05
2018-07-25T00:23:12.807Z,3.05
2018-07-25T00:23:25.199Z,3.05
2018-07-25T00:23:37.747Z,3.05
2018-07-25T00:23:50.132Z,3.05
2018-07-25T00:24:02.530Z,3.05
2018-07-25T00:24:14.927Z,3.05
2018-07-25T00:24:27.325Z,3.05
2018-07-25T00:24:39.726Z,3.05
2018-07-25T00:24:52.127Z,3.05
2018-07-25T00:25:04.560Z,3.05
2018-07-25T00:25:16.963Z,3.05
2018-07-25T00:25:29.348Z,3.05
2018-07-25T00:25:41.775Z,3.05
2018-07-25T00:25:54.169Z,3.05
2018-07-25T00:26:06.564Z,3.05
2018-07-25T00:26:18.956Z,3.05
2018-07-25T00:26:31.386Z,3.05
2018-07-25T00:26:43.789Z,3.05
2018-07-25T00:26:56.190Z,3.39
2018-07-25T00:27:08.580Z,3.39
2018-07-25T00:27:20.978Z,3.39
2018-07-25T00:27:33.383Z,3.39
2018-07-25T00:27:45.773Z,3.39
2018-07-25T00:27:58.178Z,3.39
2018-07-25T00:28:10.572Z,3.39
2018-07-25T00:28:22.961Z,3.39
2018-07-25T00:28:35.374Z,3.39
2018-07-25T00:28:55.483Z,3.39
2018-07-25T00:29:07.893Z,3.39
2018-07-25T00:29:20.292Z,3.39
2018-07-25T00:29:32.678Z,3.39
2018-07-25T00:29:45.075Z,3.39
2018-07-25T00:29:57.464Z,3.39
2018-07-25T00:30:09.867Z,3.39
2018-07-25T00:30:22.432Z,3.39
2018-07-25T00:30:34.822Z,3.39
2018-07-25T00:30:47.219Z,3.39
2018-07-25T00:30:59.629Z,3.39
2018-07-25T00:31:12.037Z,3.39
2018-07-25T00:31:24.438Z,3.39
2018-07-25T00:31:36.823Z,3.39
2018-07-25T00:31:49.216Z,3.39
2018-07-25T00:32:01.799Z,3.39
2018-07-25T00:32:14.198Z,3.39
2018-07-25T00:32:26.593Z,3.39
2018-07-25T00:32:38.972Z,3.39
2018-07-25T00:32:51.380Z,3.39
2018-07-25T00:33:03.785Z,3.39
2018-07-25T00:33:16.179Z,3.39
2018-07-25T00:33:28.566Z,3.39
2018-07-25T00:33:40.949Z,3.39
2018-07-25T00:33:53.342Z,3.39
2018-07-25T00:34:05.760Z,3.39
2018-07-25T00:34:18.149Z,3.39
2018-07-25T00:34:30.552Z,3.39
2018-07-25T00:34:42.946Z,3.39
2018-07-25T00:34:55.348Z,3.39
2018-07-25T00:35:07.743Z,3.39
2018-07-25T00:35:20.134Z,3.39
2018-07-25T00:35:32.539Z,3.39
2018-07-25T00:35:44.926Z,3.39
2018-07-25T00:35:57.322Z,3.39
2018-07-25T00:36:09.985Z,3.39
2018-07-25T00:36:23.091Z,3.39
2018-07-25T00:36:35.779Z,3.39
2018-07-25T00:36:48.179Z,3.39
2018-07-25T00:37:00.566Z,3.9
2018-07-25T00:37:12.965Z,3.9
2018-07-25T00:37:25.353Z,3.9
2018-07-25T00:37:37.764Z,3.9
2018-07-25T00:37:50.161Z,3.9
2018-07-25T00:38:02.556Z,3.9
2018-07-25T00:38:14.961Z,3.9
2018-07-25T00:38:27.353Z,3.9
2018-07-25T00:38:39.736Z,3.9
2018-07-25T00:38:52.144Z,3.9
2018-07-25T00:39:04.533Z,3.9
2018-07-25T00:39:16.945Z,3.9
2018-07-25T00:39:29.351Z,3.9
2018-07-25T00:39:41.744Z,3.9
2018-07-25T00:39:54.132Z,3.9
2018-07-25T00:40:06.526Z,3.9
2018-07-25T00:40:18.919Z,3.9
2018-07-25T00:40:31.322Z,3.9
2018-07-25T00:40:43.718Z,3.9
2018-07-25T00:40:56.101Z,3.9
2018-07-25T00:41:08.480Z,3.9
2018-07-25T00:41:20.934Z,3.9
2018-07-25T00:41:33.325Z,3.9
2018-07-25T00:41:45.720Z,3.9
2018-07-25T00:41:58.119Z,3.9
2018-07-25T00:42:10.514Z,3.9
2018-07-25T00:42:22.899Z,3.9
2018-07-25T00:42:35.300Z,3.9
2018-07-25T00:42:47.693Z,3.9
2018-07-25T00:43:00.080Z,3.9
2018-07-25T00:43:12.511Z,3.9
2018-07-25T00:43:24.905Z,3.9
2018-07-25T00:43:37.303Z,3.9
2018-07-25T00:43:49.696Z,3.9
2018-07-25T00:44:02.081Z,3.9
2018-07-25T00:44:14.453Z,3.9
2018-07-25T00:44:26.942Z,3.9
2018-07-25T00:44:39.326Z,3.9
2018-07-25T00:44:51.709Z,3.9
2018-07-25T00:45:04.104Z,3.9
2018-07-25T00:45:16.509Z,3.9
2018-07-25T00:45:28.911Z,3.9
2018-07-25T00:45:41.294Z,3.9
2018-07-25T00:45:53.683Z,3.9
2018-07-25T00:46:06.126Z,3.9
2018-07-25T00:46:18.520Z,3.9
2018-07-25T00:46:30.902Z,3.9
2018-07-25T00:46:43.297Z,3.9
2018-07-25T00:46:55.690Z,2.96
2018-07-25T00:47:08.075Z,2.96
2018-07-25T00:47:20.459Z,2.96
2018-07-25T00:47:32.857Z,2.96
2018-07-25T00:47:45.253Z,2.96
2018-07-25T00:47:57.643Z,2.96
2018-07-25T00:48:10.042Z,2.96
2018-07-25T00:48:22.433Z,2.96
2018-07-25T00:48:34.840Z,2.96
2018-07-25T00:48:47.225Z,2.96
2018-07-25T00:48:59.790Z,2.96
2018-07-25T00:49:12.189Z,2.96
2018-07-25T00:49:24.582Z,2.96
2018-07-25T00:49:36.971Z,2.96
2018-07-25T00:49:49.574Z,2.96
2018-07-25T00:50:01.972Z,2.96
2018-07-25T00:50:14.370Z,2.96
2018-07-25T00:50:26.762Z,2.96
2018-07-25T00:50:39.167Z,2.96
2018-07-25T00:50:51.555Z,2.96
2018-07-25T00:51:03.955Z,2.96
2018-07-25T00:51:16.351Z,2.96
2018-07-25T00:51:28.733Z,2.96
2018-07-25T00:51:41.129Z,2.96
2018-07-25T00:51:53.577Z,2.96
2018-07-25T00:52:06.028Z,2.96
2018-07-25T00:52:18.436Z,2.96
2018-07-25T00:52:30.874Z,2.96
2018-07-25T00:52:43.282Z,2.96
2018-07-25T00:52:55.670Z,2.96
2018-07-25T00:53:08.085Z,2.96
2018-07-25T00:53:20.490Z,2.96
2018-07-25T00:53:32.902Z,2.96
2018-07-25T00:53:45.300Z,2.96
2018-07-25T00:53:57.703Z,2.96
2018-07-25T00:54:10.106Z,2.96
2018-07-25T00:54:22.495Z,2.96
2018-07-25T00:54:34.885Z,2.96
2018-07-25T00:54:47.463Z,2.96
2018-07-25T00:55:00.109Z,2.96
2018-07-25T00:55:12.515Z,2.96
2018-07-25T00:55:25.257Z,2.96
2018-07-25T00:55:38.105Z,2.96
2018-07-25T00:55:50.980Z,2.96
2018-07-25T00:56:03.395Z,2.96
2018-07-25T00:56:15.788Z,2.96
2018-07-25T00:56:28.178Z,2.96
2018-07-25T00:56:40.568Z,2.96
2018-07-25T00:56:52.973Z,2.96
2018-07-25T00:57:05.385Z,3.46
2018-07-25T00:57:17.776Z,3.46
2018-07-25T00:57:30.157Z,3.46
2018-07-25T00:57:42.543Z,3.46
2018-07-25T00:57:54.926Z,3.46
2018-07-25T00:58:07.362Z,3.46
2018-07-25T00:58:19.751Z,3.46
2018-07-25T00:58:32.143Z,3.46
2018-07-25T00:58:44.533Z,3.46
2018-07-25T00:58:56.907Z,3.46
2018-07-25T00:59:09.295Z,3.46
2018-07-25T00:59:21.682Z,3.46
2018-07-25T00:59:34.079Z,3.46
2018-07-25T00:59:46.464Z,3.46
2018-07-25T00:59:59.082Z,3.46
2018-07-25T01:00:11.519Z,3.46
2018-07-25T01:00:23.937Z,3.46
2018-07-25T01:00:36.433Z,3.46
2018-07-25T01:00:48.832Z,3.46
2018-07-25T01:01:01.232Z,3.46
2018-07-25T01:01:13.772Z,3.46
2018-07-25T01:01:26.173Z,3.46
2018-07-25T01:01:38.587Z,3.46
2018-07-25T01:01:50.984Z,3.46
2018-07-25T01:02:03.384Z,3.46
2018-07-25T01:02:15.853Z,3.46
2018-07-25T01:02:28.272Z,3.46
2018-07-25T01:02:40.689Z,3.46
2018-07-25T01:02:53.092Z,3.46
2018-07-25T01:03:05.501Z,3.46
2018-07-25T01:03:17.907Z,3.46
2018-07-25T01:03:30.324Z,3.46
2018-07-25T01:03:42.713Z,3.46
2018-07-25T01:03:55.128Z,3.46
2018-07-25T01:04:07.550Z,3.46
2018-07-25T01:04:19.948Z,3.46
2018-07-25T01:04:32.341Z,3.46
2018-07-25T01:04:44.752Z,3.46
2018-07-25T01:04:57.283Z,3.46
2018-07-25T01:05:09.680Z,3.46
2018-07-25T01:05:22.064Z,3.46
2018-07-25T01:05:34.460Z,3.46
2018-07-25T01:05:46.853Z,3.46
2018-07-25T01:05:59.236Z,3.46
2018-07-25T01:06:11.682Z,3.46
2018-07-25T01:06:24.066Z,3.46
2018-07-25T01:06:36.463Z,3.46
2018-07-25T01:06:48.846Z,3.46
2018-07-25T01:07:01.247Z,3.62
2018-07-25T01:07:13.645Z,3.62
2018-07-25T01:07:26.036Z,3.62
2018-07-25T01:07:38.452Z,3.62
2018-07-25T01:07:50.953Z,3.62
2018-07-25T01:08:03.350Z,3.62
2018-07-25T01:08:15.741Z,3.62
2018-07-25T01:08:28.185Z,3.62
2018-07-25T01:08:40.780Z,3.62
2018-07-25T01:08:53.165Z,3.62
2018-07-25T01:09:05.567Z,3.62
2018-07-25T01:09:17.966Z,3.62
2018-07-25T01:09:30.380Z,3.62
2018-07-25T01:09:42.769Z,3.62
2018-07-25T01:09:55.160Z,3.62
2018-07-25T01:10:07.534Z,3.62
2018-07-25T01:10:19.948Z,3.62
2018-07-25T01:10:32.330Z,3.62
2018-07-25T01:10:44.705Z,3.62
2018-07-25T01:10:57.081Z,3.62
2018-07-25T01:11:09.473Z,3.62
2018-07-25T01:11:21.913Z,3.62
2018-07-25T01:11:34.299Z,3.62
2018-07-25T01:11:46.712Z,3.62
2018-07-25T01:11:59.097Z,3.62
2018-07-25T01:12:11.543Z,3.62
2018-07-25T01:12:23.929Z,3.62
2018-07-25T01:12:36.315Z,3.62
2018-07-25T01:12:48.723Z,3.62
2018-07-25T01:13:01.119Z,3.62
2018-07-25T01:13:13.535Z,3.62
2018-07-25T01:13:25.932Z,3.62
2018-07-25T01:13:38.434Z,3.62
2018-07-25T01:13:50.828Z,3.62
2018-07-25T01:14:03.343Z,3.62
2018-07-25T01:14:15.742Z,3.62
2018-07-25T01:14:28.141Z,3.62
2018-07-25T01:14:40.564Z,3.62
2018-07-25T01:14:52.955Z,3.62
2018-07-25T01:15:05.339Z,3.62
2018-07-25T01:15:17.761Z,3.62
2018-07-25T01:15:30.163Z,3.62
2018-07-25T01:15:42.559Z,3.62
2018-07-25T01:15:54.970Z,3.62
2018-07-25T01:16:07.350Z,3.62
2018-07-25T01:16:19.734Z,3.62
2018-07-25T01:16:32.165Z,3.62
2018-07-25T01:16:44.570Z,3.62
2018-07-25T01:16:57.006Z,4.17
2018-07-25T01:17:09.414Z,4.17
2018-07-25T01:17:21.806Z,4.17
2018-07-25T01:17:34.209Z,4.17
2018-07-25T01:17:46.921Z,4.17
2018-07-25T01:17:59.378Z,4.17
2018-07-25T01:18:11.770Z,4.17
2018-07-25T01:18:24.169Z,4.17
2018-07-25T01:18:36.568Z,4.17
2018-07-25T01:18:48.974Z,4.17
2018-07-25T01:19:01.465Z,4.17
2018-07-25T01:19:13.866Z,4.17
2018-07-25T01:19:26.269Z,4.17
2018-07-25T01:19:38.660Z,4.17
2018-07-25T01:19:51.085Z,4.17
2018-07-25T01:20:03.490Z,4.17
2018-07-25T01:20:15.892Z,4.17
2018-07-25T01:20:28.272Z,4.17
2018-07-25T01:20:40.666Z,4.17
2018-07-25T01:20:53.100Z,4.17
2018-07-25T01:21:05.646Z,4.17
2018-07-25T01:21:18.185Z,4.17
2018-07-25T01:21:30.679Z,4.17
2018-07-25T01:21:43.057Z,4.17
2018-07-25T01:21:55.450Z,4.17
2018-07-25T01:22:07.844Z,4.17
2018-07-25T01:22:20.226Z,4.17
2018-07-25T01:22:32.665Z,4.17
2018-07-25T01:22:45.052Z,4.17
2018-07-25T01:22:57.455Z,4.17
2018-07-25T01:23:09.837Z,4.17
2018-07-25T01:23:22.234Z,4.17
2018-07-25T01:23:34.626Z,4.17
2018-07-25T01:23:47.060Z,4.17
2018-07-25T01:23:59.455Z,4.17
2018-07-25T01:24:11.851Z,4.17
2018-07-25T01:24:24.255Z,4.17
2018-07-25T01:24:36.643Z,4.17
2018-07-25T01:24:49.115Z,4.17
2018-07-25T01:25:01.513Z,4.17
2018-07-25T01:25:13.909Z,4.17
2018-07-25T01:25:26.300Z,4.17
2018-07-25T01:25:38.744Z,4.17
2018-07-25T01:25:51.149Z,4.17
2018-07-25T01:26:03.617Z,4.17
2018-07-25T01:26:16.011Z,4.17
2018-07-25T01:26:28.543Z,4.17
2018-07-25T01:26:40.945Z,4.17
2018-07-25T01:26:53.347Z,4.17
2018-07-25T01:27:05.742Z,3.05
2018-07-25T01:27:18.128Z,3.05
2018-07-25T01:27:30.522Z,3.05
2018-07-25T01:27:42.917Z,3.05
2018-07-25T01:27:55.309Z,3.05
2018-07-25T01:28:07.691Z,3.05
2018-07-25T01:28:20.074Z,3.05
2018-07-25T01:28:32.452Z,3.05
2018-07-25T01:28:44.862Z,3.05
2018-07-25T01:28:57.254Z,3.05
2018-07-25T01:29:09.641Z,3.05
2018-07-25T01:29:22.048Z,3.05
2018-07-25T01:29:34.448Z,3.05
2018-07-25T01:29:46.828Z,3.05
2018-07-25T01:29:59.221Z,3.05
2018-07-25T01:30:11.605Z,3.05
2018-07-25T01:30:24.201Z,3.05
2018-07-25T01:30:36.579Z,3.05
2018-07-25T01:30:48.964Z,3.05
2018-07-25T01:31:01.370Z,3.05
2018-07-25T01:31:13.777Z,3.05
2018-07-25T01:31:26.157Z,3.05
2018-07-25T01:31:38.595Z,3.05
2018-07-25T01:31:50.999Z,3.05
2018-07-25T01:32:03.528Z,3.05
2018-07-25T01:32:15.923Z,3.05
2018-07-25T01:32:28.316Z,3.05
2018-07-25T01:32:40.705Z,3.05
2018-07-25T01:32:53.111Z,3.05
2018-07-25T01:33:05.548Z,3.05
2018-07-25T01:33:17.935Z,3.05
2018-07-25T01:33:30.375Z,3.05
2018-07-25T01:33:42.815Z,3.05
2018-07-25T01:33:55.195Z,3.05
2018-07-25T01:34:07.598Z,3.05
2018-07-25T01:34:19.969Z,3.05
2018-07-25T01:34:32.359Z,3.05
2018-07-25T01:34:44.745Z,3.05
2018-07-25T01:34:57.191Z,3.05
2018-07-25T01:35:09.582Z,3.05
2018-07-25T01:35:21.969Z,3.05
2018-07-25T01:35:34.370Z,3.05
2018-07-25T01:35:46.758Z,3.05
2018-07-25T01:35:59.193Z,3.05
2018-07-25T01:36:11.595Z,3.05
2018-07-25T01:36:24.000Z,3.05
2018-07-25T01:36:36.413Z,3.05
2018-07-25T01:36:48.811Z,3.05
2018-07-25T01:37:01.185Z,3.71
2018-07-25T01:37:13.573Z,3.71
2018-07-25T01:37:25.968Z,3.71
2018-07-25T01:37:38.347Z,3.71
2018-07-25T01:37:50.731Z,3.71
2018-07-25T01:38:03.114Z,3.71
2018-07-25T01:38:15.497Z,3.71
2018-07-25T01:38:27.881Z,3.71
2018-07-25T01:38:40.272Z,3.71
2018-07-25T01:38:52.671Z,3.71
2018-07-25T01:39:05.072Z,3.71
2018-07-25T01:39:17.470Z,3.71
2018-07-25T01:39:29.859Z,3.71
2018-07-25T01:39:42.243Z,3.71
2018-07-25T01:39:54.622Z,3.71
2018-07-25T01:40:07.007Z,3.71
2018-07-25T01:40:19.402Z,3.71
2018-07-25T01:40:32.070Z,3.71
2018-07-25T01:40:44.462Z,3.71
2018-07-25T01:40:56.840Z,3.71
2018-07-25T01:41:09.229Z,3.71
2018-07-25T01:41:21.632Z,3.71
2018-07-25T01:41:34.016Z,3.71
2018-07-25T01:41:46.569Z,3.71
2018-07-25T01:41:58.952Z,3.71
2018-07-25T01:42:11.365Z,3.71
2018-07-25T01:42:23.748Z,3.71
2018-07-25T01:42:36.133Z,3.71
2018-07-25T01:42:48.523Z,3.71
2018-07-25T01:43:00.912Z,3.71
2018-07-25T01:43:13.318Z,3.71
2018-07-25T01:43:25.709Z,3.71
2018-07-25T01:43:38.093Z,3.71
2018-07-25T01:43:50.484Z,3.71
2018-07-25T01:44:02.882Z,3.71
2018-07-25T01:44:15.283Z,3.71
2018-07-25T01:44:27.805Z,3.71
2018-07-25T01:44:40.196Z,3.71
2018-07-25T01:44:52.579Z,3.71
2018-07-25T01:45:04.983Z,3.71
2018-07-25T01:45:17.375Z,3.71
2018-07-25T01:45:29.764Z,3.71
2018-07-25T01:45:42.170Z,3.71
2018-07-25T01:45:54.551Z,3.71
2018-07-25T01:46:06.941Z,3.71
2018-07-25T01:46:19.320Z,3.71
2018-07-25T01:46:31.710Z,3.71
2018-07-25T01:46:44.103Z,3.71
2018-07-25T01:46:56.492Z,3.71
2018-07-25T01:47:08.892Z,4.04
2018-07-25T01:47:21.301Z,4.04
2018-07-25T01:47:33.738Z,4.04
2018-07-25T01:47:46.123Z,4.04
2018-07-25T01:47:58.492Z,4.04
2018-07-25T01:48:10.881Z,4.04
2018-07-25T01:48:23.294Z,4.04
2018-07-25T01:48:35.690Z,4.04
2018-07-25T01:48:48.080Z,4.04
2018-07-25T01:49:00.626Z,4.04
2018-07-25T01:49:13.077Z,4.04
2018-07-25T01:49:25.469Z,4.04
2018-07-25T01:49:37.859Z,4.04
2018-07-25T01:49:50.254Z,4.04
2018-07-25T01:50:02.657Z,4.04
2018-07-25T01:50:15.044Z,4.04
2018-07-25T01:50:27.432Z,4.04
2018-07-25T01:50:39.817Z,4.04
2018-07-25T01:50:52.199Z,4.04
2018-07-25T01:51:04.583Z,4.04
2018-07-25T01:51:16.987Z,4.04
2018-07-25T01:51:29.370Z,4.04
2018-07-25T01:51:41.751Z,4.04
2018-07-25T01:51:54.152Z,4.04
2018-07-25T01:52:06.584Z,4.04
2018-07-25T01:52:18.981Z,4.04
2018-07-25T01:52:31.385Z,4.04
2018-07-25T01:52:43.768Z,4.04
2018-07-25T01:52:56.151Z,4.04
2018-07-25T01:53:08.530Z,4.04
2018-07-25T01:53:20.922Z,4.04
2018-07-25T01:53:33.326Z,4.04
2018-07-25T01:53:45.704Z,4.04
2018-07-25T01:53:58.110Z,4.04
2018-07-25T01:54:10.510Z,4.04
2018-07-25T01:54:22.907Z,4.04
2018-07-25T01:54:35.305Z,4.04
2018-07-25T01:54:47.711Z,4.04
2018-07-25T01:55:00.242Z,4.04
2018-07-25T01:55:12.646Z,4.04
2018-07-25T01:55:25.046Z,4.04
2018-07-25T01:55:37.427Z,4.04
2018-07-25T01:55:49.815Z,4.04
2018-07-25T01:56:02.224Z,4.04
2018-07-25T01:56:14.672Z,4.04
2018-07-25T01:56:27.070Z,4.04
2018-07-25T01:56:39.457Z,4.04
2018-07-25T01:56:51.847Z,4.04
2018-07-25T01:57:04.243Z,3.3
2018-07-25T01:57:16.623Z,3.3
2018-07-25T01:57:29.008Z,3.3
2018-07-25T01:57:41.389Z,3.3
2018-07-25T01:57:53.775Z,3.3
2018-07-25T01:58:06.208Z,3.3
2018-07-25T01:58:18.652Z,3.3
2018-07-25T01:58:31.088Z,3.3
2018-07-25T01:58:43.476Z,3.3
2018-07-25T01:58:55.851Z,3.3
2018-07-25T01:59:08.230Z,3.3
2018-07-25T01:59:20.639Z,3.3
2018-07-25T01:59:33.038Z,3.3
2018-07-25T01:59:45.414Z,3.3
2018-07-25T01:59:57.943Z,3.3
2018-07-25T02:00:10.362Z,3.3
2018-07-25T02:00:22.765Z,3.3
2018-07-25T02:00:35.326Z,3.3
2018-07-25T02:00:47.762Z,3.3
2018-07-25T02:01:00.174Z,3.3
2018-07-25T02:01:12.749Z,3.3
2018-07-25T02:01:25.727Z,3.3
2018-07-25T02:01:38.727Z,3.3
2018-07-25T02:01:51.197Z,3.3
2018-07-25T02:02:03.746Z,3.3
2018-07-25T02:02:16.140Z,3.3
2018-07-25T02:02:28.603Z,3.3
2018-07-25T02:02:41.001Z,3.3
2018-07-25T02:02:53.432Z,3.3
2018-07-25T02:03:05.843Z,3.3
2018-07-25T02:03:18.245Z,3.3
2018-07-25T02:03:30.658Z,3.3
2018-07-25T02:03:43.115Z,3.3
2018-07-25T02:03:55.520Z,3.3
2018-07-25T02:04:07.971Z,3.3
2018-07-25T02:04:20.360Z,3.3
2018-07-25T02:04:32.765Z,3.3
2018-07-25T02:04:45.195Z,3.3
2018-07-25T02:04:57.577Z,3.3
2018-07-25T02:05:09.984Z,3.3
2018-07-25T02:05:22.371Z,3.3
2018-07-25T02:05:34.845Z,3.3
2018-07-25T02:05:47.240Z,3.3
2018-07-25T02:05:59.633Z,3.3
2018-07-25T02:06:12.159Z,3.3
2018-07-25T02:06:24.552Z,3.3
2018-07-25T02:06:36.942Z,3.3
2018-07-25T02:06:49.346Z,3.3
2018-07-25T02:07:01.751Z,3.63
2018-07-25T02:07:14.175Z,3.63
2018-07-25T02:07:26.584Z,3.63
2018-07-25T02:07:39.019Z,3.63
2018-07-25T02:07:51.570Z,3.63
2018-07-25T02:08:04.057Z,3.63
2018-07-25T02:08:17.345Z,3.63
2018-07-25T02:08:30.363Z,3.63
2018-07-25T02:08:43.191Z,3.63
2018-07-25T02:08:55.589Z,3.63
2018-07-25T02:09:07.973Z,3.63
2018-07-25T02:09:20.374Z,3.63
2018-07-25T02:09:32.768Z,3.63
2018-07-25T02:09:45.161Z,3.63
2018-07-25T02:09:57.546Z,3.63
2018-07-25T02:10:09.943Z,3.63
2018-07-25T02:10:22.326Z,3.63
2018-07-25T02:10:34.714Z,3.63
2018-07-25T02:10:47.123Z,3.63
2018-07-25T02:10:59.508Z,3.63
2018-07-25T02:11:11.895Z,3.63
2018-07-25T02:11:24.285Z,3.63
2018-07-25T02:11:36.683Z,3.63
2018-07-25T02:11:49.103Z,3.63
2018-07-25T02:12:01.506Z,3.63
2018-07-25T02:12:13.897Z,3.63
2018-07-25T02:12:26.283Z,3.63
2018-07-25T02:12:38.700Z,3.63
2018-07-25T02:12:51.109Z,3.63
2018-07-25T02:13:03.512Z,3.63
2018-07-25T02:13:15.901Z,3.63
2018-07-25T02:13:28.299Z,3.63
2018-07-25T02:13:40.716Z,3.63
2018-07-25T02:13:53.175Z,3.63
2018-07-25T02:14:05.726Z,3.63
2018-07-25T02:14:18.127Z,3.63
2018-07-25T02:14:30.509Z,3.63
2018-07-25T02:14:42.916Z,3.63
2018-07-25T02:14:55.309Z,3.63
2018-07-25T02:15:07.712Z,3.63
2018-07-25T02:15:20.118Z,3.63
2018-07-25T02:15:32.496Z,3.63
2018-07-25T02:15:44.890Z,3.63
2018-07-25T02:15:57.281Z,3.63
2018-07-25T02:16:09.667Z,3.63
2018-07-25T02:16:22.042Z,3.63
2018-07-25T02:16:34.434Z,3.63
2018-07-25T02:16:46.837Z,3.63
2018-07-25T02:16:59.283Z,3.63
2018-07-25T02:17:11.682Z,3.8
2018-07-25T02:17:24.082Z,3.8
2018-07-25T02:17:36.476Z,3.8
2018-07-25T02:17:49.145Z,3.8
2018-07-25T02:18:01.565Z,3.8
2018-07-25T02:18:13.957Z,3.8
2018-07-25T02:18:26.347Z,3.8
2018-07-25T02:18:38.737Z,3.8
2018-07-25T02:18:51.219Z,3.8
2018-07-25T02:19:03.829Z,3.8
2018-07-25T02:19:16.228Z,3.8
2018-07-25T02:19:29.048Z,3.8
2018-07-25T02:19:42.036Z,3.8
2018-07-25T02:19:54.432Z,3.8
2018-07-25T02:20:06.847Z,3.8
2018-07-25T02:20:19.234Z,3.8
2018-07-25T02:20:31.686Z,3.8
2018-07-25T02:20:44.071Z,3.8
2018-07-25T02:20:56.466Z,3.8
2018-07-25T02:21:08.866Z,3.8
2018-07-25T02:21:21.259Z,3.8
2018-07-25T02:21:33.824Z,3.8
2018-07-25T02:21:46.268Z,3.8
2018-07-25T02:21:58.670Z,3.8
2018-07-25T02:22:11.064Z,3.8
2018-07-25T02:22:23.465Z,3.8
2018-07-25T02:22:35.880Z,3.8
2018-07-25T02:22:48.275Z,3.8
2018-07-25T02:23:00.662Z,3.8
2018-07-25T02:23:13.055Z,3.8
2018-07-25T02:23:25.462Z,3.8
2018-07-25T02:23:37.859Z,3.8
2018-07-25T02:23:50.269Z,3.8
2018-07-25T02:24:02.683Z,3.8
2018-07-25T02:24:15.106Z,3.8
2018-07-25T02:24:27.520Z,3.8
2018-07-25T02:24:39.914Z,3.8
2018-07-25T02:24:52.308Z,3.8
2018-07-25T02:25:04.708Z,3.8
2018-07-25T02:25:17.113Z,3.8
2018-07-25T02:25:29.493Z,3.8
2018-07-25T02:25:41.889Z,3.8
2018-07-25T02:25:54.288Z,3.8
2018-07-25T02:26:06.680Z,3.8
2018-07-25T02:26:19.060Z,3.8
2018-07-25T02:26:31.449Z,3.8
2018-07-25T02:26:43.838Z,3.8
2018-07-25T02:26:56.244Z,3.8
2018-07-25T02:27:08.626Z,3.35
2018-07-25T02:27:21.022Z,3.35
2018-07-25T02:27:33.415Z,3.35
2018-07-25T02:27:45.811Z,3.35
2018-07-25T02:27:58.201Z,3.35
2018-07-25T02:28:10.601Z,3.35
2018-07-25T02:28:23.020Z,3.35
2018-07-25T02:28:35.529Z,3.35
2018-07-25T02:28:47.919Z,3.35
2018-07-25T02:29:00.305Z,3.35
2018-07-25T02:29:12.704Z,3.35
2018-07-25T02:29:25.147Z,3.35
2018-07-25T02:29:37.548Z,3.35
2018-07-25T02:29:49.942Z,3.35
2018-07-25T02:30:02.372Z,3.35
2018-07-25T02:30:14.801Z,3.35
2018-07-25T02:30:27.431Z,3.35
2018-07-25T02:30:39.829Z,3.35
2018-07-25T02:30:52.262Z,3.35
2018-07-25T02:31:04.678Z,3.35
2018-07-25T02:31:17.149Z,3.35
2018-07-25T02:31:29.552Z,3.35
2018-07-25T02:31:41.960Z,3.35
2018-07-25T02:31:54.373Z,3.35
2018-07-25T02:32:06.891Z,3.35
2018-07-25T02:32:19.307Z,3.35
2018-07-25T02:32:31.728Z,3.35
2018-07-25T02:32:44.185Z,3.35
2018-07-25T02:32:56.593Z,3.35
2018-07-25T02:33:09.010Z,3.35
2018-07-25T02:33:21.419Z,3.35
2018-07-25T02:33:33.849Z,3.35
2018-07-25T02:33:46.310Z,3.35
2018-07-25T02:33:58.747Z,3.35
2018-07-25T02:34:11.162Z,3.35
2018-07-25T02:34:23.614Z,3.35
2018-07-25T02:34:36.037Z,3.35
2018-07-25T02:34:48.442Z,3.35
2018-07-25T02:35:00.860Z,3.35
2018-07-25T02:35:13.268Z,3.35
2018-07-25T02:35:25.691Z,3.35
2018-07-25T02:35:38.098Z,3.35
2018-07-25T02:35:50.530Z,3.35
2018-07-25T02:36:02.927Z,3.35
2018-07-25T02:36:15.338Z,3.35
2018-07-25T02:36:27.734Z,3.35
2018-07-25T02:36:40.191Z,3.35
2018-07-25T02:36:52.602Z,3.35
2018-07-25T02:37:05.060Z,4.28
2018-07-25T02:37:17.478Z,4.28
2018-07-25T02:37:29.884Z,4.28
2018-07-25T02:37:42.287Z,4.28
2018-07-25T02:37:54.688Z,4.28
2018-07-25T02:38:07.127Z,4.28
2018-07-25T02:38:19.544Z,4.28
2018-07-25T02:38:31.957Z,4.28
2018-07-25T02:38:44.381Z,4.28
2018-07-25T02:38:56.783Z,4.28
2018-07-25T02:39:09.190Z,4.28
2018-07-25T02:39:21.672Z,4.28
2018-07-25T02:39:34.120Z,4.28
2018-07-25T02:39:46.521Z,4.28
2018-07-25T02:39:58.924Z,4.28
2018-07-25T02:40:11.362Z,4.28
2018-07-25T02:40:23.770Z,4.28
2018-07-25T02:40:36.286Z,4.28
2018-07-25T02:40:48.684Z,4.28
2018-07-25T02:41:01.088Z,4.28
2018-07-25T02:41:13.515Z,4.28
2018-07-25T02:41:25.926Z,4.28
2018-07-25T02:41:38.339Z,4.28
2018-07-25T02:41:50.757Z,4.28
2018-07-25T02:42:03.234Z,4.28
2018-07-25T02:42:15.809Z,4.28
2018-07-25T02:42:28.703Z,4.28
2018-07-25T02:42:42.064Z,4.28
2018-07-25T02:42:54.495Z,4.28
2018-07-25T02:43:06.924Z,4.28
2018-07-25T02:43:19.342Z,4.28
2018-07-25T02:43:31.777Z,4.28
2018-07-25T02:43:44.771Z,4.28
2018-07-25T02:43:58.169Z,4.28
2018-07-25T02:44:10.653Z,4.28
2018-07-25T02:44:23.241Z,4.28
2018-07-25T02:44:35.673Z,4.28
2018-07-25T02:44:48.068Z,4.28
2018-07-25T02:45:00.455Z,4.28
2018-07-25T02:45:12.865Z,4.28
2018-07-25T02:45:25.270Z,4.28
2018-07-25T02:45:37.691Z,4.28
2018-07-25T02:45:50.102Z,4.28
2018-07-25T02:46:02.505Z,4.28
2018-07-25T02:46:14.921Z,4.28
2018-07-25T02:46:27.346Z,4.28
2018-07-25T02:46:39.779Z,4.28